createdAt,value
2022-11-15T00:01:24.358Z,10.92
2022-11-15T00:03:54.333Z,10.94
2022-11-15T00:06:23.093Z,10.96
2022-11-15T00:08:49.797Z,10.97
2022-11-15T00:11:16.532Z,10.98
2022-11-15T00:13:43.326Z,10.99
2022-11-15T00:16:11.517Z,11.00
2022-11-15T00:18:39.448Z,11.02
2022-11-15T00:21:10.541Z,11.04
2022-11-15T00:23:37.338Z,11.04
2022-11-15T00:26:05.126Z,11.05
2022-11-15T00:28:31.960Z,11.06
2022-11-15T00:31:06.662Z,11.07
2022-11-15T00:33:34.663Z,11.07
2022-11-15T00:36:06.649Z,11.08
2022-11-15T00:38:34.717Z,11.09
2022-11-15T00:41:06.429Z,11.10
2022-11-15T00:43:36.191Z,11.10
2022-11-15T00:46:04.027Z,11.12
2022-11-15T00:48:30.861Z,11.12
2022-11-15T00:50:57.830Z,11.13
2022-11-15T00:53:24.544Z,11.15
2022-11-15T00:55:51.248Z,11.16
2022-11-15T00:58:18.072Z,11.18
2022-11-15T01:00:44.851Z,11.17
2022-11-15T01:03:11.685Z,11.19
2022-11-15T01:05:39.396Z,11.21
2022-11-15T01:08:06.252Z,11.22
2022-11-15T01:10:33.097Z,11.23
2022-11-15T01:12:59.784Z,11.25
2022-11-15T01:15:26.542Z,11.27
2022-11-15T01:17:53.299Z,11.29
2022-11-15T01:20:20.040Z,11.29
2022-11-15T01:22:47.368Z,11.30
2022-11-15T01:25:14.154Z,11.33
2022-11-15T01:27:40.955Z,11.33
2022-11-15T01:30:09.328Z,11.34
2022-11-15T01:32:36.036Z,11.33
2022-11-15T01:35:02.785Z,11.34
2022-11-15T01:37:29.485Z,11.34
2022-11-15T01:39:56.492Z,11.37
2022-11-15T01:42:23.230Z,11.36
2022-11-15T01:44:52.686Z,11.38
2022-11-15T01:47:27.502Z,11.39
2022-11-15T01:49:57.612Z,11.39
2022-11-15T01:52:28.496Z,11.41
2022-11-15T01:55:02.530Z,11.41
2022-11-15T01:57:29.343Z,11.43
2022-11-15T01:59:57.101Z,11.44
2022-11-15T02:02:23.974Z,11.45
2022-11-15T02:04:50.779Z,11.46
2022-11-15T02:07:21.140Z,11.47
2022-11-15T02:09:48.170Z,11.37
2022-11-15T02:12:19.905Z,11.02
2022-11-15T02:14:52.282Z,10.70
2022-11-15T02:17:21.894Z,10.49
2022-11-15T02:20:26.766Z,10.30
2022-11-15T02:23:20.837Z,10.13
2022-11-15T02:26:25.074Z,10.01
2022-11-15T02:29:11.964Z,9.85
2022-11-15T02:32:15.677Z,9.69
2022-11-15T02:35:10.156Z,9.58
2022-11-15T02:37:46.271Z,9.48
2022-11-15T02:40:27.461Z,9.48
2022-11-15T02:43:24.238Z,9.45
2022-11-15T02:45:57.343Z,9.43
2022-11-15T02:48:26.267Z,9.43
2022-11-15T02:50:53.397Z,9.41
2022-11-15T02:53:26.769Z,9.40
2022-11-15T02:55:56.230Z,9.38
2022-11-15T02:58:40.295Z,9.39
2022-11-15T03:01:16.010Z,9.41
2022-11-15T03:03:49.935Z,9.38
2022-11-15T03:06:32.765Z,9.37
2022-11-15T03:09:29.670Z,9.37
2022-11-15T03:12:16.607Z,9.36
2022-11-15T03:15:18.871Z,9.34
2022-11-15T03:18:05.862Z,9.28
2022-11-15T03:20:33.916Z,9.23
2022-11-15T03:23:12.116Z,9.22
2022-11-15T03:25:46.771Z,9.17
2022-11-15T03:28:17.229Z,9.15
2022-11-15T03:30:47.368Z,9.14
2022-11-15T03:33:14.679Z,9.15
2022-11-15T03:35:45.444Z,9.11
2022-11-15T03:38:21.282Z,9.08
2022-11-15T03:41:15.365Z,9.06
2022-11-15T03:43:49.507Z,8.99
2022-11-15T03:46:26.753Z,8.93
2022-11-15T03:49:00.485Z,8.86
2022-11-15T03:51:29.518Z,8.83
2022-11-15T03:53:56.287Z,8.80
2022-11-15T03:56:23.006Z,8.77
2022-11-15T03:58:49.758Z,8.75
2022-11-15T04:01:16.603Z,8.73
2022-11-15T04:03:43.429Z,8.67
2022-11-15T04:06:10.143Z,8.66
2022-11-15T04:08:36.828Z,8.69
2022-11-15T04:11:03.559Z,8.66
2022-11-15T04:13:30.573Z,8.69
2022-11-15T04:15:57.416Z,8.69
2022-11-15T04:18:25.447Z,8.68
2022-11-15T04:21:10.700Z,8.64
2022-11-15T04:24:06.962Z,8.58
2022-11-15T04:26:34.005Z,8.58
2022-11-15T04:29:19.280Z,8.56
2022-11-15T04:31:45.999Z,8.52
2022-11-15T04:34:12.681Z,8.51
2022-11-15T04:36:58.220Z,8.51
2022-11-15T04:39:25.055Z,8.52
2022-11-15T04:41:51.800Z,8.50
2022-11-15T04:44:18.573Z,8.48
2022-11-15T04:46:45.277Z,8.47
2022-11-15T04:49:11.999Z,8.47
2022-11-15T04:51:38.716Z,8.43
2022-11-15T04:54:05.479Z,8.40
2022-11-15T04:56:32.279Z,8.38
2022-11-15T04:58:59.001Z,8.38
2022-11-15T05:01:25.769Z,8.38
2022-11-15T05:04:11.016Z,8.38
2022-11-15T05:06:37.723Z,8.36
2022-11-15T05:09:05.087Z,8.35
2022-11-15T05:11:31.876Z,8.34
2022-11-15T05:13:58.654Z,8.35
2022-11-15T05:16:25.378Z,8.35
2022-11-15T05:18:53.407Z,8.38
2022-11-15T05:21:20.155Z,8.36
2022-11-15T05:23:46.886Z,8.37
2022-11-15T05:26:15.764Z,8.36
2022-11-15T05:28:42.501Z,8.34
2022-11-15T05:31:14.527Z,8.32
2022-11-15T05:33:42.288Z,8.31
2022-11-15T05:36:13.169Z,8.28
2022-11-15T05:38:40.271Z,8.28
2022-11-15T05:41:07.191Z,8.28
2022-11-15T05:43:38.223Z,8.29
2022-11-15T05:46:05.724Z,8.31
2022-11-15T05:48:35.394Z,8.29
2022-11-15T05:51:04.160Z,8.26
2022-11-15T05:53:31.894Z,8.21
2022-11-15T05:55:59.024Z,8.19
2022-11-15T05:58:25.790Z,8.18
2022-11-15T06:00:52.664Z,8.20
2022-11-15T06:03:19.390Z,8.19
2022-11-15T06:05:46.108Z,8.16
2022-11-15T06:08:12.945Z,8.14
2022-11-15T06:10:39.719Z,8.14
2022-11-15T06:13:06.487Z,8.12
2022-11-15T06:15:37.556Z,8.08
2022-11-15T06:18:04.369Z,8.06
2022-11-15T06:20:32.698Z,8.05
2022-11-15T06:23:04.590Z,8.02
2022-11-15T06:25:32.256Z,8.03
2022-11-15T06:28:00.038Z,8.04
2022-11-15T06:30:27.842Z,8.03
2022-11-15T06:33:05.532Z,8.00
2022-11-15T06:35:34.910Z,7.99
2022-11-15T06:38:10.672Z,7.96
2022-11-15T06:40:40.617Z,7.95
2022-11-15T06:43:07.810Z,7.94
2022-11-15T06:45:34.724Z,7.90
2022-11-15T06:48:01.580Z,7.90
2022-11-15T06:50:28.340Z,7.88
2022-11-15T06:52:55.729Z,7.89
2022-11-15T06:55:22.744Z,7.86
2022-11-15T06:57:53.436Z,7.84
2022-11-15T07:00:21.963Z,7.82
2022-11-15T07:02:49.623Z,7.83
2022-11-15T07:05:17.026Z,7.82
2022-11-15T07:07:43.927Z,7.82
2022-11-15T07:10:10.889Z,7.78
2022-11-15T07:12:37.699Z,7.76
2022-11-15T07:15:04.819Z,7.73
2022-11-15T07:17:31.541Z,7.71
2022-11-15T07:19:58.335Z,7.70
2022-11-15T07:22:27.056Z,7.69
2022-11-15T07:24:53.863Z,7.66
2022-11-15T07:27:20.829Z,7.63
2022-11-15T07:29:47.792Z,7.61
2022-11-15T07:32:14.499Z,7.59
2022-11-15T07:34:41.229Z,7.56
2022-11-15T07:37:08.032Z,7.54
2022-11-15T07:39:34.765Z,7.52
2022-11-15T07:42:20.070Z,7.45
2022-11-15T07:44:46.754Z,7.42
2022-11-15T07:47:13.778Z,7.39
2022-11-15T07:49:40.582Z,7.35
2022-11-15T07:52:07.325Z,7.30
2022-11-15T07:54:34.562Z,7.26
2022-11-15T07:57:06.657Z,7.23
2022-11-15T07:59:34.187Z,7.17
2022-11-15T08:02:01.163Z,7.15
2022-11-15T08:04:28.159Z,7.11
2022-11-15T08:06:55.057Z,7.08
2022-11-15T08:09:21.965Z,7.06
2022-11-15T08:11:48.671Z,7.02
2022-11-15T08:14:15.352Z,6.97
2022-11-15T08:16:42.068Z,6.96
2022-11-15T08:19:08.747Z,6.94
2022-11-15T08:21:36.210Z,6.94
2022-11-15T08:24:03.282Z,6.89
2022-11-15T08:26:31.103Z,6.87
2022-11-15T08:28:57.828Z,6.85
2022-11-15T08:31:24.578Z,6.82
2022-11-15T08:33:51.369Z,6.83
2022-11-15T08:36:18.891Z,6.83
2022-11-15T08:38:45.638Z,6.83
2022-11-15T08:41:31.957Z,6.85
2022-11-15T08:43:58.747Z,6.88
2022-11-15T08:46:25.745Z,6.88
2022-11-15T08:48:52.674Z,6.90
2022-11-15T08:51:21.191Z,6.91
2022-11-15T08:53:49.117Z,6.91
2022-11-15T08:56:17.163Z,6.93
2022-11-15T08:58:43.872Z,6.94
2022-11-15T09:01:20.601Z,6.97
2022-11-15T09:03:47.829Z,6.97
2022-11-15T09:06:14.849Z,6.97
2022-11-15T09:08:49.087Z,6.99
2022-11-15T09:11:17.634Z,7.02
2022-11-15T09:13:44.616Z,7.00
2022-11-15T09:16:13.113Z,6.99
2022-11-15T09:18:39.837Z,6.98
2022-11-15T09:21:06.544Z,6.98
2022-11-15T09:23:34.608Z,6.97
2022-11-15T09:26:03.750Z,6.94
2022-11-15T09:28:31.735Z,6.94
2022-11-15T09:31:00.211Z,6.95
2022-11-15T09:33:27.715Z,6.98
2022-11-15T09:35:55.010Z,6.99
2022-11-15T09:38:21.871Z,7.03
2022-11-15T09:40:57.105Z,7.08
2022-11-15T09:43:55.967Z,7.15
2022-11-15T09:46:28.611Z,7.22
2022-11-15T09:49:01.434Z,7.29
2022-11-15T09:51:49.805Z,7.32
2022-11-15T09:57:21.121Z,7.43
2022-11-15T10:00:38.897Z,7.53
2022-11-15T10:03:04.601Z,7.67
2022-11-15T10:05:36.471Z,7.80
2022-11-15T10:08:07.799Z,7.90
2022-11-15T10:10:44.944Z,7.98
2022-11-15T10:13:23.910Z,8.06
2022-11-15T10:15:52.257Z,8.15
2022-11-15T10:18:29.604Z,8.21
2022-11-15T10:21:37.659Z,8.28
2022-11-15T10:24:14.327Z,8.32
2022-11-15T10:26:48.266Z,8.32
2022-11-15T10:29:27.089Z,8.32
2022-11-15T10:31:54.311Z,8.32
2022-11-15T10:34:23.210Z,8.29
2022-11-15T10:36:58.110Z,8.23
2022-11-15T10:39:25.833Z,8.20
2022-11-15T10:41:52.876Z,8.16
2022-11-15T10:44:27.470Z,8.18
2022-11-15T10:46:56.951Z,8.22
2022-11-15T10:49:26.663Z,8.26
2022-11-15T10:52:13.564Z,8.32
2022-11-15T10:54:47.642Z,8.39
2022-11-15T10:57:23.847Z,8.41
2022-11-15T10:59:59.824Z,8.39
2022-11-15T11:02:37.450Z,8.38
2022-11-15T11:05:25.828Z,8.35
2022-11-15T11:08:24.265Z,8.32
2022-11-15T11:11:04.263Z,8.32
2022-11-15T11:13:35.544Z,8.31
2022-11-15T11:16:27.392Z,8.32
2022-11-15T11:19:17.562Z,8.33
2022-11-15T11:22:07.167Z,8.34
2022-11-15T11:25:35.315Z,8.34
2022-11-15T11:28:27.922Z,8.34
2022-11-15T11:30:54.620Z,8.35
2022-11-15T11:33:44.657Z,8.38
2022-11-15T11:36:14.270Z,8.38
2022-11-15T11:38:56.115Z,8.39
2022-11-15T11:41:45.416Z,8.43
2022-11-15T11:44:48.187Z,8.45
2022-11-15T11:47:14.800Z,8.47
2022-11-15T11:49:53.309Z,8.49
2022-11-15T11:53:00.910Z,8.51
2022-11-15T11:55:44.570Z,8.53
2022-11-15T11:58:37.437Z,8.55
2022-11-15T12:01:35.270Z,8.58
2022-11-15T12:04:10.822Z,8.61
2022-11-15T12:06:55.922Z,8.62
2022-11-15T12:09:50.290Z,8.64
2022-11-15T12:12:19.538Z,8.68
2022-11-15T12:15:03.133Z,8.70
2022-11-15T12:17:33.215Z,8.73
2022-11-15T12:20:03.130Z,8.77
2022-11-15T12:22:59.184Z,8.83
2022-11-15T12:25:25.926Z,8.86
2022-11-15T12:28:08.776Z,8.90
2022-11-15T12:31:07.170Z,8.93
2022-11-15T12:33:46.696Z,8.96
2022-11-15T12:36:22.376Z,8.99
2022-11-15T12:39:11.837Z,9.03
2022-11-15T12:42:05.415Z,9.08
2022-11-15T12:44:32.251Z,9.10
2022-11-15T12:46:59.043Z,9.12
2022-11-15T12:49:28.540Z,9.16
2022-11-15T12:51:58.328Z,9.22
2022-11-15T12:54:24.983Z,9.26
2022-11-15T12:57:04.048Z,9.31
2022-11-15T12:59:49.571Z,9.37
2022-11-15T13:02:27.664Z,9.40
2022-11-15T13:05:20.462Z,9.48
2022-11-15T13:07:50.251Z,9.53
2022-11-15T13:10:17.023Z,9.57
2022-11-15T13:12:43.654Z,9.65
2022-11-15T13:15:13.432Z,9.71
2022-11-15T13:17:53.541Z,9.77
2022-11-15T13:20:23.631Z,9.87
2022-11-15T13:23:00.551Z,9.94
2022-11-15T13:25:56.004Z,10.05
2022-11-15T13:28:30.934Z,10.13
2022-11-15T13:31:01.397Z,10.20
2022-11-15T13:33:35.749Z,10.28
2022-11-15T13:36:25.541Z,10.37
2022-11-15T13:39:07.338Z,10.44
2022-11-15T13:41:36.985Z,10.47
2022-11-15T13:44:08.508Z,10.52
2022-11-15T13:46:35.457Z,10.60
2022-11-15T13:49:05.822Z,10.66
2022-11-15T13:51:39.357Z,10.69
2022-11-15T13:54:25.232Z,10.72
2022-11-15T13:57:02.188Z,10.70
2022-11-15T13:59:32.746Z,10.73
2022-11-15T14:02:04.619Z,10.78
2022-11-15T14:04:34.953Z,10.83
2022-11-15T14:07:03.923Z,10.84
2022-11-15T14:09:41.414Z,10.86
2022-11-15T14:12:36.390Z,10.85
2022-11-15T14:15:26.361Z,10.81
2022-11-15T14:17:54.348Z,10.76
2022-11-15T14:20:29.719Z,10.70
2022-11-15T14:22:58.872Z,10.60
2022-11-15T14:25:36.427Z,10.48
2022-11-15T14:28:30.876Z,10.37
2022-11-15T14:31:00.269Z,10.26
2022-11-15T14:33:31.828Z,10.20
2022-11-15T14:36:04.678Z,10.13
2022-11-15T14:38:31.835Z,10.05
2022-11-15T14:40:59.434Z,9.99
2022-11-15T14:43:26.409Z,9.95
2022-11-15T14:45:53.245Z,9.89
2022-11-15T14:48:21.204Z,9.83
2022-11-15T14:50:47.924Z,9.81
2022-11-15T14:53:19.900Z,9.78
2022-11-15T14:55:46.855Z,9.76
2022-11-15T14:58:13.736Z,9.71
2022-11-15T15:00:42.108Z,9.69
2022-11-15T15:03:09.981Z,9.66
2022-11-15T15:05:40.330Z,9.63
2022-11-15T15:08:07.578Z,9.59
2022-11-15T15:10:40.710Z,9.55
2022-11-15T15:13:30.165Z,9.50
2022-11-15T15:15:56.996Z,9.46
2022-11-15T15:18:23.943Z,9.41
2022-11-15T15:21:01.155Z,9.37
2022-11-15T15:23:30.338Z,9.34
2022-11-15T15:25:57.304Z,9.30
2022-11-15T15:28:24.030Z,9.29
2022-11-15T15:30:50.860Z,9.26
2022-11-15T15:33:17.700Z,9.23
2022-11-15T15:35:44.490Z,9.18
2022-11-15T15:38:14.346Z,9.14
2022-11-15T15:40:41.243Z,9.11
2022-11-15T15:43:10.179Z,9.06
2022-11-15T15:45:42.132Z,9.01
2022-11-15T15:48:18.314Z,8.97
2022-11-15T15:50:46.317Z,8.90
2022-11-15T15:53:14.087Z,8.84
2022-11-15T15:55:41.200Z,8.79
2022-11-15T15:58:09.282Z,8.75
2022-11-15T16:00:36.907Z,8.69
2022-11-15T16:03:04.616Z,8.64
2022-11-15T16:05:32.574Z,8.58
2022-11-15T16:07:59.472Z,8.53
2022-11-15T16:10:29.083Z,8.48
2022-11-15T16:12:57.759Z,8.43
2022-11-15T16:15:26.895Z,8.36
2022-11-15T16:17:55.689Z,8.31
2022-11-15T16:20:46.187Z,8.25
2022-11-15T16:23:18.178Z,8.20
2022-11-15T16:25:49.173Z,8.14
2022-11-15T16:28:19.421Z,8.13
2022-11-15T16:30:46.395Z,8.09
2022-11-15T16:33:13.227Z,8.08
2022-11-15T16:35:39.981Z,8.05
2022-11-15T16:38:06.893Z,8.03
2022-11-15T16:40:36.131Z,8.00
2022-11-15T16:43:04.579Z,7.97
2022-11-15T16:45:32.056Z,7.96
2022-11-15T16:47:59.004Z,7.96
2022-11-15T16:50:28.403Z,7.93
2022-11-15T16:52:57.333Z,7.92
2022-11-15T16:55:26.912Z,7.92
2022-11-15T16:57:58.092Z,7.92
2022-11-15T17:00:26.380Z,7.92
2022-11-15T17:02:54.288Z,7.93
2022-11-15T17:05:23.286Z,7.91
2022-11-15T17:07:54.309Z,7.90
2022-11-15T17:10:26.043Z,7.88
2022-11-15T17:12:55.250Z,7.87
2022-11-15T17:15:22.408Z,7.86
2022-11-15T17:17:54.037Z,7.84
2022-11-15T17:20:23.329Z,7.86
2022-11-15T17:22:50.022Z,7.84
2022-11-15T17:25:17.146Z,7.82
2022-11-15T17:27:43.859Z,7.83
2022-11-15T17:30:13.497Z,7.82
2022-11-15T17:32:40.340Z,7.81
2022-11-15T17:35:11.991Z,7.79
2022-11-15T17:37:42.004Z,7.78
2022-11-15T17:40:09.508Z,7.79
2022-11-15T17:42:36.274Z,7.79
2022-11-15T17:45:09.330Z,7.75
2022-11-15T17:47:36.982Z,7.74
2022-11-15T17:50:04.359Z,7.73
2022-11-15T17:52:31.118Z,7.73
2022-11-15T17:54:57.873Z,7.72
2022-11-15T17:57:24.566Z,7.72
2022-11-15T17:59:51.247Z,7.71
2022-11-15T18:02:18.027Z,7.69
2022-11-15T18:04:44.732Z,7.68
2022-11-15T18:07:12.493Z,7.67
2022-11-15T18:09:42.435Z,7.62
2022-11-15T18:12:10.334Z,7.60
2022-11-15T18:14:37.206Z,7.57
2022-11-15T18:17:04.135Z,7.55
2022-11-15T18:19:30.827Z,7.50
2022-11-15T18:21:57.718Z,7.45
2022-11-15T18:24:28.846Z,7.41
2022-11-15T18:26:55.800Z,7.39
2022-11-15T18:29:24.610Z,7.33
2022-11-15T18:31:55.634Z,7.28
2022-11-15T18:34:24.610Z,7.24
2022-11-15T18:36:52.809Z,7.20
2022-11-15T18:39:19.924Z,7.17
2022-11-15T18:41:47.496Z,7.13
2022-11-15T18:44:14.607Z,7.10
2022-11-15T18:46:42.166Z,7.09
2022-11-15T18:49:13.332Z,7.07
2022-11-15T18:51:42.146Z,7.06
2022-11-15T18:54:11.104Z,7.03
2022-11-15T18:56:38.685Z,7.02
2022-11-15T18:59:06.457Z,7.02
2022-11-15T19:01:41.454Z,7.02
2022-11-15T19:04:19.168Z,7.00
2022-11-15T19:06:48.703Z,7.03
2022-11-15T19:09:18.025Z,7.05
2022-11-15T19:11:46.320Z,7.06
2022-11-15T19:14:16.011Z,7.07
2022-11-15T19:16:45.020Z,7.07
2022-11-15T19:19:15.452Z,7.05
2022-11-15T19:21:42.824Z,7.04
2022-11-15T19:24:10.660Z,7.02
2022-11-15T19:26:38.009Z,6.98
2022-11-15T19:29:05.949Z,6.97
2022-11-15T19:31:33.108Z,6.95
2022-11-15T19:34:02.404Z,6.94
2022-11-15T19:36:34.859Z,6.95
2022-11-15T19:39:08.505Z,6.94
2022-11-15T19:41:38.582Z,6.93
2022-11-15T19:44:06.477Z,6.95
2022-11-15T19:46:33.583Z,6.95
2022-11-15T19:49:00.483Z,6.96
2022-11-15T19:51:30.973Z,6.97
2022-11-15T19:54:03.603Z,6.98
2022-11-15T19:56:30.169Z,6.97
2022-11-15T19:58:56.908Z,6.97
2022-11-15T20:01:24.642Z,6.98
2022-11-15T20:03:56.146Z,6.99
2022-11-15T20:06:26.071Z,7.00
2022-11-15T20:08:55.940Z,7.04
2022-11-15T20:11:23.039Z,7.06
2022-11-15T20:13:50.217Z,7.06
2022-11-15T20:16:20.901Z,7.08
2022-11-15T20:18:49.392Z,7.12
2022-11-15T20:21:17.237Z,7.16
2022-11-15T20:23:44.272Z,7.21
2022-11-15T20:26:11.573Z,7.24
2022-11-15T20:28:39.703Z,7.28
2022-11-15T20:31:07.451Z,7.34
2022-11-15T20:33:34.962Z,7.40
2022-11-15T20:36:13.197Z,7.44
2022-11-15T20:38:40.337Z,7.48
2022-11-15T20:41:07.162Z,7.50
2022-11-15T20:43:33.928Z,7.52
2022-11-15T20:46:00.678Z,7.56
2022-11-15T20:48:27.593Z,7.58
2022-11-15T20:51:06.688Z,7.60
2022-11-15T20:53:34.267Z,7.61
2022-11-15T20:56:07.749Z,7.61
2022-11-15T20:58:35.923Z,7.61
2022-11-15T21:01:03.659Z,7.60
2022-11-15T21:03:30.556Z,7.60
2022-11-15T21:05:57.570Z,7.59
2022-11-15T21:08:24.292Z,7.58
2022-11-15T21:11:11.637Z,7.58
2022-11-15T21:13:39.361Z,7.58
2022-11-15T21:16:06.519Z,7.57
2022-11-15T21:18:34.616Z,7.58
2022-11-15T21:21:05.999Z,7.57
2022-11-15T21:23:34.396Z,7.57
2022-11-15T21:26:01.084Z,7.54
2022-11-15T21:28:27.852Z,7.52
2022-11-15T21:30:57.179Z,7.49
2022-11-15T21:33:27.383Z,7.50
2022-11-15T21:35:57.828Z,7.49
2022-11-15T21:38:24.988Z,7.47
2022-11-15T21:40:53.480Z,7.47
2022-11-15T21:43:21.272Z,7.47
2022-11-15T21:46:02.356Z,7.48
2022-11-15T21:48:31.423Z,7.47
2022-11-15T21:51:04.309Z,7.49
2022-11-15T21:53:34.559Z,7.48
2022-11-15T21:56:02.471Z,7.50
2022-11-15T21:58:29.456Z,7.50
2022-11-15T22:01:15.935Z,7.47
2022-11-15T22:03:43.711Z,7.45
2022-11-15T22:06:16.079Z,7.42
2022-11-15T22:08:45.918Z,7.39
2022-11-15T22:11:13.415Z,7.34
2022-11-15T22:13:40.507Z,7.31
2022-11-15T22:16:09.932Z,7.29
2022-11-15T22:18:37.330Z,7.28
2022-11-15T22:21:13.343Z,7.26
2022-11-15T22:23:41.566Z,7.24
2022-11-15T22:26:11.599Z,7.21
2022-11-15T22:28:38.515Z,7.19
2022-11-15T22:31:05.636Z,7.17
2022-11-15T22:33:34.441Z,7.16
2022-11-15T22:36:03.179Z,7.14
2022-11-15T22:38:30.499Z,7.14
2022-11-15T22:40:58.336Z,7.16
2022-11-15T22:43:26.498Z,7.14
2022-11-15T22:45:57.719Z,7.12
2022-11-15T22:48:32.834Z,7.13
2022-11-15T22:51:00.250Z,7.12
2022-11-15T22:53:27.751Z,7.12
2022-11-15T22:56:02.547Z,7.12
2022-11-15T22:58:31.571Z,7.12
2022-11-15T23:01:02.046Z,7.10
2022-11-15T23:03:30.066Z,7.11
2022-11-15T23:06:05.777Z,7.09
2022-11-15T23:08:33.011Z,7.10
2022-11-15T23:11:19.795Z,7.09
2022-11-15T23:13:46.568Z,7.09
2022-11-15T23:16:22.383Z,7.09
2022-11-15T23:18:51.293Z,7.10
2022-11-15T23:21:43.904Z,7.08
2022-11-15T23:24:12.437Z,7.11
2022-11-15T23:26:39.980Z,7.09
2022-11-15T23:29:12.334Z,7.12
2022-11-15T23:32:02.152Z,7.14
2022-11-15T23:34:31.801Z,7.14
2022-11-15T23:36:59.206Z,7.15
2022-11-15T23:39:25.964Z,7.17
2022-11-15T23:41:53.994Z,7.17
2022-11-15T23:44:21.000Z,7.18
2022-11-15T23:46:47.911Z,7.19
2022-11-15T23:49:14.959Z,7.22
2022-11-15T23:51:42.033Z,7.23
2022-11-15T23:54:08.848Z,7.24
2022-11-15T23:56:35.978Z,7.27
2022-11-15T23:59:03.296Z,7.29
